METAR AND TAF INFORMATION
METAR FOR LGKL
ADDS - METARS form results

(1326 UTC 13 November 2019)
Data provider http://aviationweather.gov/metar/data/
 
METAR text: LGKL 131320Z 00000KT 8000 4000SE BR SCT025 SCT080 19/15 Q1009
Conditions at: LGKL (KALAMATA (HEL-AF, GR) observed 1320 UTC 13 November 2019
Temperature: 19.0°C (66°F)
Dewpoint: 15.0°C (59°F) [RH = 78%]
Pressure (altimeter): 29.79 inches Hg (1009.0 mb)
Winds: calm
Visibility: 5 miles ( 8 km)
Ceiling: at least 12,000 feet AGL
Clouds: scattered clouds at 2500 feet AGL
scattered clouds at 8000 feet AGL
Weather: BR  (mist)

METAR text: LGKL 131250Z 00000KT 9000 4500SE BR SCT025 SCT080 19/15 Q1009
Conditions at: LGKL (KALAMATA (HEL-AF, GR) observed 1250 UTC 13 November 2019
Temperature: 19.0°C (66°F)
Dewpoint: 15.0°C (59°F) [RH = 78%]
Pressure (altimeter): 29.79 inches Hg (1009.0 mb)
Winds: calm
Visibility: 6 miles ( 9 km)
Ceiling: at least 12,000 feet AGL
Clouds: scattered clouds at 2500 feet AGL
scattered clouds at 8000 feet AGL
Weather: BR  (mist)

Forecast for: LGKL (KALAMATA (HEL-AF, GR)
Text: TAF LGKL 131100Z 1312/1321 16010KT 8000 SCT025 BKN080
Forecast period: 1200 to 2100 UTC 13 November 2019
Forecast type: FROM: standard forecast or significant change
Winds: from the SSE (160 degrees) at 12 MPH (10 knots; 5.1 m/s)
Visibility: 5 miles (8 km)
Ceiling: 8000 feet AGL
Clouds: scattered clouds at 2500 feet AGL
broken clouds at 8000 feet AGL
Weather: no significant weather forecast for this period
Text: TEMPO 1312/1314 3000 BR SCT012 BKN080
Forecast period: 1200 to 1400 UTC 13 November 2019
Forecast type: TEMPORARY: The following changes expected for less than half the time period
Visibility: 1.86 miles (2.99 km)
Ceiling: 8000 feet AGL
Clouds: scattered clouds at 1200 feet AGL
broken clouds at 8000 feet AGL
Weather: BR  (mist)
Text: PROB30
Forecast period: 1200 to 2100 UTC 13 November 2019
Forecast type: TEMPORARY: The following changes expected for less than half the time period
Visibility: missing
Ceiling: unknown
Clouds: missing
Weather: RA  (moderate rain)

 ΧΑΡΤΗΣ ΑΕΡΟΔΡΟΜΙΟΥ

 RUNWAY INFORMATION
Διάδρομος 17R Runway length 9260 ft Runway width 148 ft
Runway elevation 26 ft Runway displaced threshold 240 ft Runway heading 169
Διάδρομος 35L Runway length 9260 ft Runway width 148 ft
Runway elevation 16 ft Runway displaced threshold 250 ft Runway heading 349

 ΣΥΧΝΟΤΗΤΕΣ ΑΕΡΟΔΡΟΜΙΟΥ
Τύπος A/G Όνομα RDO Συχνότητα 563.7 MHZ
Τύπος APP Όνομα APP Συχνότητα 120.75 MHZ
Τύπος TWR Όνομα TWR Συχνότητα 120.75 MHZ

 AIRPORT NEAR NAVIGATION AIDS
Τύπος VOR-DME Όνομα Kalamata Συχνότητα 112600 KHZ
Τύπος TACAN Όνομα Kalamata Συχνότητα 115200 KHZ
Τύπος NDB Όνομα Kalamata Συχνότητα 348 KHZ



Hellenic Air Force Virtual - All rights reserved 2019 - Powered by VAM